sensor_id;sensor_type;location;lat;lon;timestamp;P1;durP1;ratioP1;P2;durP2;ratioP2
36629;SDS011;36256;42.154;23.002;2022-10-17T00:00:38;12.40;;;6.97;;
36629;SDS011;36256;42.154;23.002;2022-10-17T00:03:05;9.88;;;6.82;;
36629;SDS011;36256;42.154;23.002;2022-10-17T00:05:32;10.85;;;6.60;;
36629;SDS011;36256;42.154;23.002;2022-10-17T00:07:58;16.45;;;6.38;;
36629;SDS011;36256;42.154;23.002;2022-10-17T00:10:25;11.13;;;6.20;;
36629;SDS011;36256;42.154;23.002;2022-10-17T00:12:52;11.95;;;6.85;;
36629;SDS011;36256;42.154;23.002;2022-10-17T00:15:19;9.27;;;6.33;;
36629;SDS011;36256;42.154;23.002;2022-10-17T00:17:46;9.63;;;6.38;;
36629;SDS011;36256;42.154;23.002;2022-10-17T00:20:13;8.65;;;5.88;;
36629;SDS011;36256;42.154;23.002;2022-10-17T00:22:40;9.18;;;5.75;;
36629;SDS011;36256;42.154;23.002;2022-10-17T00:25:08;8.75;;;6.70;;
36629;SDS011;36256;42.154;23.002;2022-10-17T00:30:03;7.40;;;5.40;;
36629;SDS011;36256;42.154;23.002;2022-10-17T00:32:31;8.13;;;4.90;;
36629;SDS011;36256;42.154;23.002;2022-10-17T00:34:58;7.97;;;5.03;;
36629;SDS011;36256;42.154;23.002;2022-10-17T00:37:24;10.20;;;5.30;;
36629;SDS011;36256;42.154;23.002;2022-10-17T00:39:52;9.43;;;5.32;;
36629;SDS011;36256;42.154;23.002;2022-10-17T00:42:19;9.60;;;4.93;;
36629;SDS011;36256;42.154;23.002;2022-10-17T00:47:14;8.88;;;5.65;;
36629;SDS011;36256;42.154;23.002;2022-10-17T00:49:42;7.15;;;5.35;;
36629;SDS011;36256;42.154;23.002;2022-10-17T00:52:17;8.65;;;4.78;;
36629;SDS011;36256;42.154;23.002;2022-10-17T00:54:56;7.93;;;5.07;;
36629;SDS011;36256;42.154;23.002;2022-10-17T00:57:27;6.35;;;4.85;;
36629;SDS011;36256;42.154;23.002;2022-10-17T00:59:56;9.10;;;4.75;;
36629;SDS011;36256;42.154;23.002;2022-10-17T01:02:25;9.80;;;5.72;;
36629;SDS011;36256;42.154;23.002;2022-10-17T01:04:53;8.98;;;5.07;;
36629;SDS011;36256;42.154;23.002;2022-10-17T01:07:25;7.18;;;5.07;;
36629;SDS011;36256;42.154;23.002;2022-10-17T01:09:56;7.90;;;5.30;;
36629;SDS011;36256;42.154;23.002;2022-10-17T01:15:11;8.50;;;5.50;;
36629;SDS011;36256;42.154;23.002;2022-10-17T01:25:56;7.65;;;5.18;;
36629;SDS011;36256;42.154;23.002;2022-10-17T01:31:29;10.40;;;5.30;;
36629;SDS011;36256;42.154;23.002;2022-10-17T01:34:00;11.07;;;5.45;;
36629;SDS011;36256;42.154;23.002;2022-10-17T01:36:43;7.30;;;5.47;;
36629;SDS011;36256;42.154;23.002;2022-10-17T01:41:50;9.00;;;5.05;;
36629;SDS011;36256;42.154;23.002;2022-10-17T01:44:36;7.97;;;5.60;;
36629;SDS011;36256;42.154;23.002;2022-10-17T01:47:12;7.68;;;5.00;;
36629;SDS011;36256;42.154;23.002;2022-10-17T01:49:42;10.27;;;5.25;;
36629;SDS011;36256;42.154;23.002;2022-10-17T01:52:12;8.55;;;5.32;;
36629;SDS011;36256;42.154;23.002;2022-10-17T01:54:45;7.32;;;5.13;;
36629;SDS011;36256;42.154;23.002;2022-10-17T01:57:21;9.77;;;5.30;;
36629;SDS011;36256;42.154;23.002;2022-10-17T01:59:54;9.88;;;5.30;;
36629;SDS011;36256;42.154;23.002;2022-10-17T02:02:22;7.43;;;5.00;;
36629;SDS011;36256;42.154;23.002;2022-10-17T02:04:51;7.38;;;5.10;;
36629;SDS011;36256;42.154;23.002;2022-10-17T02:07:20;7.78;;;5.22;;
36629;SDS011;36256;42.154;23.002;2022-10-17T02:09:47;11.57;;;5.18;;
36629;SDS011;36256;42.154;23.002;2022-10-17T02:18:02;9.25;;;5.00;;
36629;SDS011;36256;42.154;23.002;2022-10-17T02:20:56;7.93;;;5.30;;
36629;SDS011;36256;42.154;23.002;2022-10-17T02:23:35;17.90;;;5.50;;
36629;SDS011;36256;42.154;23.002;2022-10-17T02:26:10;9.55;;;5.30;;
36629;SDS011;36256;42.154;23.002;2022-10-17T02:28:44;9.18;;;5.07;;
36629;SDS011;36256;42.154;23.002;2022-10-17T02:31:19;8.48;;;5.10;;
36629;SDS011;36256;42.154;23.002;2022-10-17T02:33:59;7.22;;;5.05;;
36629;SDS011;36256;42.154;23.002;2022-10-17T02:36:33;6.90;;;5.03;;
36629;SDS011;36256;42.154;23.002;2022-10-17T02:39:02;7.53;;;5.10;;
36629;SDS011;36256;42.154;23.002;2022-10-17T02:41:31;7.35;;;5.20;;
36629;SDS011;36256;42.154;23.002;2022-10-17T02:43:59;8.63;;;5.00;;
36629;SDS011;36256;42.154;23.002;2022-10-17T02:46:28;8.52;;;5.20;;
36629;SDS011;36256;42.154;23.002;2022-10-17T02:49:01;7.15;;;4.70;;
36629;SDS011;36256;42.154;23.002;2022-10-17T02:54:16;7.30;;;5.00;;
36629;SDS011;36256;42.154;23.002;2022-10-17T02:57:01;7.25;;;5.32;;
36629;SDS011;36256;42.154;23.002;2022-10-17T02:59:37;7.68;;;4.72;;
36629;SDS011;36256;42.154;23.002;2022-10-17T03:02:07;8.02;;;5.10;;
36629;SDS011;36256;42.154;23.002;2022-10-17T03:04:33;8.73;;;5.45;;
36629;SDS011;36256;42.154;23.002;2022-10-17T03:07:00;8.73;;;5.13;;
36629;SDS011;36256;42.154;23.002;2022-10-17T03:09:26;9.77;;;5.43;;
36629;SDS011;36256;42.154;23.002;2022-10-17T03:11:53;10.57;;;5.57;;
36629;SDS011;36256;42.154;23.002;2022-10-17T03:14:20;8.35;;;5.50;;
36629;SDS011;36256;42.154;23.002;2022-10-17T03:16:46;5.72;;;4.00;;
36629;SDS011;36256;42.154;23.002;2022-10-17T03:19:13;8.83;;;5.70;;
36629;SDS011;36256;42.154;23.002;2022-10-17T03:21:39;8.43;;;5.20;;
36629;SDS011;36256;42.154;23.002;2022-10-17T03:24:06;8.30;;;5.40;;
36629;SDS011;36256;42.154;23.002;2022-10-17T03:26:33;7.88;;;5.05;;
36629;SDS011;36256;42.154;23.002;2022-10-17T03:28:59;9.20;;;4.93;;
36629;SDS011;36256;42.154;23.002;2022-10-17T03:31:26;9.73;;;5.07;;
36629;SDS011;36256;42.154;23.002;2022-10-17T03:33:53;5.10;;;3.83;;
36629;SDS011;36256;42.154;23.002;2022-10-17T03:36:19;9.10;;;5.20;;
36629;SDS011;36256;42.154;23.002;2022-10-17T03:38:46;5.95;;;4.05;;
36629;SDS011;36256;42.154;23.002;2022-10-17T03:41:13;7.78;;;5.32;;
36629;SDS011;36256;42.154;23.002;2022-10-17T03:43:40;9.25;;;6.22;;
36629;SDS011;36256;42.154;23.002;2022-10-17T03:46:06;11.25;;;6.68;;
36629;SDS011;36256;42.154;23.002;2022-10-17T03:48:33;13.18;;;8.15;;
36629;SDS011;36256;42.154;23.002;2022-10-17T03:51:00;11.50;;;8.00;;
36629;SDS011;36256;42.154;23.002;2022-10-17T03:53:29;11.85;;;7.95;;
36629;SDS011;36256;42.154;23.002;2022-10-17T03:55:56;10.35;;;7.32;;
36629;SDS011;36256;42.154;23.002;2022-10-17T03:58:23;13.80;;;7.45;;
36629;SDS011;36256;42.154;23.002;2022-10-17T04:00:49;11.73;;;7.68;;
36629;SDS011;36256;42.154;23.002;2022-10-17T04:03:16;12.90;;;8.35;;
36629;SDS011;36256;42.154;23.002;2022-10-17T04:05:42;14.50;;;8.30;;
36629;SDS011;36256;42.154;23.002;2022-10-17T04:08:09;10.67;;;7.33;;
36629;SDS011;36256;42.154;23.002;2022-10-17T04:10:36;13.70;;;8.60;;
36629;SDS011;36256;42.154;23.002;2022-10-17T04:13:02;12.98;;;8.25;;
36629;SDS011;36256;42.154;23.002;2022-10-17T04:15:29;12.82;;;8.50;;
36629;SDS011;36256;42.154;23.002;2022-10-17T04:17:56;11.33;;;9.07;;
36629;SDS011;36256;42.154;23.002;2022-10-17T04:20:22;14.70;;;9.13;;
36629;SDS011;36256;42.154;23.002;2022-10-17T04:22:49;12.43;;;7.82;;
36629;SDS011;36256;42.154;23.002;2022-10-17T04:25:15;15.67;;;8.07;;
36629;SDS011;36256;42.154;23.002;2022-10-17T04:27:42;8.43;;;6.10;;
36629;SDS011;36256;42.154;23.002;2022-10-17T04:30:09;21.67;;;12.80;;
36629;SDS011;36256;42.154;23.002;2022-10-17T04:32:36;11.27;;;7.20;;
36629;SDS011;36256;42.154;23.002;2022-10-17T04:35:04;10.10;;;7.35;;
36629;SDS011;36256;42.154;23.002;2022-10-17T04:37:31;11.25;;;7.45;;
36629;SDS011;36256;42.154;23.002;2022-10-17T04:39:57;24.92;;;11.77;;
36629;SDS011;36256;42.154;23.002;2022-10-17T04:42:24;17.92;;;10.95;;
36629;SDS011;36256;42.154;23.002;2022-10-17T04:44:51;14.75;;;8.10;;
36629;SDS011;36256;42.154;23.002;2022-10-17T04:47:17;12.75;;;7.28;;
36629;SDS011;36256;42.154;23.002;2022-10-17T04:49:44;10.70;;;7.38;;
36629;SDS011;36256;42.154;23.002;2022-10-17T04:52:10;12.53;;;7.30;;
36629;SDS011;36256;42.154;23.002;2022-10-17T04:54:37;15.37;;;8.60;;
36629;SDS011;36256;42.154;23.002;2022-10-17T04:57:03;11.13;;;8.37;;
36629;SDS011;36256;42.154;23.002;2022-10-17T04:59:30;12.13;;;6.85;;
36629;SDS011;36256;42.154;23.002;2022-10-17T05:01:57;12.15;;;8.90;;
36629;SDS011;36256;42.154;23.002;2022-10-17T05:04:23;12.73;;;8.43;;
36629;SDS011;36256;42.154;23.002;2022-10-17T05:06:50;9.85;;;6.82;;
36629;SDS011;36256;42.154;23.002;2022-10-17T05:09:17;9.57;;;6.25;;
36629;SDS011;36256;42.154;23.002;2022-10-17T05:11:44;8.43;;;6.50;;
36629;SDS011;36256;42.154;23.002;2022-10-17T05:14:10;13.77;;;6.47;;
36629;SDS011;36256;42.154;23.002;2022-10-17T05:16:37;6.70;;;4.65;;
36629;SDS011;36256;42.154;23.002;2022-10-17T05:19:03;9.77;;;7.00;;
36629;SDS011;36256;42.154;23.002;2022-10-17T05:21:30;14.63;;;7.88;;
36629;SDS011;36256;42.154;23.002;2022-10-17T05:24:05;13.10;;;8.05;;
36629;SDS011;36256;42.154;23.002;2022-10-17T05:26:32;18.73;;;10.57;;
36629;SDS011;36256;42.154;23.002;2022-10-17T05:29:00;21.35;;;9.40;;
36629;SDS011;36256;42.154;23.002;2022-10-17T05:31:30;16.80;;;8.45;;
36629;SDS011;36256;42.154;23.002;2022-10-17T05:34:00;15.13;;;9.20;;
36629;SDS011;36256;42.154;23.002;2022-10-17T05:36:27;12.63;;;8.52;;
36629;SDS011;36256;42.154;23.002;2022-10-17T05:38:54;14.18;;;8.80;;
36629;SDS011;36256;42.154;23.002;2022-10-17T05:41:21;12.73;;;8.40;;
36629;SDS011;36256;42.154;23.002;2022-10-17T05:43:48;13.35;;;9.50;;
36629;SDS011;36256;42.154;23.002;2022-10-17T05:48:42;13.88;;;9.30;;
36629;SDS011;36256;42.154;23.002;2022-10-17T05:51:08;20.20;;;9.98;;
36629;SDS011;36256;42.154;23.002;2022-10-17T05:53:36;16.58;;;9.15;;
36629;SDS011;36256;42.154;23.002;2022-10-17T05:56:05;14.32;;;9.40;;
36629;SDS011;36256;42.154;23.002;2022-10-17T05:58:33;15.18;;;8.65;;
36629;SDS011;36256;42.154;23.002;2022-10-17T06:01:20;14.35;;;8.68;;
36629;SDS011;36256;42.154;23.002;2022-10-17T06:03:46;13.50;;;9.77;;
36629;SDS011;36256;42.154;23.002;2022-10-17T06:06:13;13.95;;;9.73;;
36629;SDS011;36256;42.154;23.002;2022-10-17T06:08:41;11.48;;;8.70;;
36629;SDS011;36256;42.154;23.002;2022-10-17T06:11:07;11.23;;;8.18;;
36629;SDS011;36256;42.154;23.002;2022-10-17T06:13:36;13.88;;;8.75;;
36629;SDS011;36256;42.154;23.002;2022-10-17T06:16:03;16.23;;;9.80;;
36629;SDS011;36256;42.154;23.002;2022-10-17T06:18:31;18.25;;;9.52;;
36629;SDS011;36256;42.154;23.002;2022-10-17T06:21:05;18.45;;;10.27;;
36629;SDS011;36256;42.154;23.002;2022-10-17T06:23:34;17.98;;;10.90;;
36629;SDS011;36256;42.154;23.002;2022-10-17T06:26:01;14.40;;;10.23;;
36629;SDS011;36256;42.154;23.002;2022-10-17T06:28:29;24.38;;;13.07;;
36629;SDS011;36256;42.154;23.002;2022-10-17T06:30:56;14.45;;;9.48;;
36629;SDS011;36256;42.154;23.002;2022-10-17T06:33:23;16.48;;;9.32;;
36629;SDS011;36256;42.154;23.002;2022-10-17T06:35:53;12.13;;;7.93;;
36629;SDS011;36256;42.154;23.002;2022-10-17T06:38:21;13.73;;;7.45;;
36629;SDS011;36256;42.154;23.002;2022-10-17T06:43:14;13.85;;;7.63;;
36629;SDS011;36256;42.154;23.002;2022-10-17T06:45:41;13.57;;;8.10;;
36629;SDS011;36256;42.154;23.002;2022-10-17T06:48:08;12.05;;;7.45;;
36629;SDS011;36256;42.154;23.002;2022-10-17T06:50:34;13.57;;;7.82;;
36629;SDS011;36256;42.154;23.002;2022-10-17T06:53:01;15.00;;;7.65;;
36629;SDS011;36256;42.154;23.002;2022-10-17T06:55:29;9.77;;;7.57;;
36629;SDS011;36256;42.154;23.002;2022-10-17T06:57:56;15.13;;;7.95;;
36629;SDS011;36256;42.154;23.002;2022-10-17T07:00:23;11.63;;;8.10;;
36629;SDS011;36256;42.154;23.002;2022-10-17T07:02:51;27.25;;;15.98;;
36629;SDS011;36256;42.154;23.002;2022-10-17T07:05:18;17.97;;;9.57;;
36629;SDS011;36256;42.154;23.002;2022-10-17T07:07:44;13.00;;;8.57;;
36629;SDS011;36256;42.154;23.002;2022-10-17T07:10:16;13.93;;;8.25;;
36629;SDS011;36256;42.154;23.002;2022-10-17T07:12:43;11.60;;;7.03;;
36629;SDS011;36256;42.154;23.002;2022-10-17T07:15:11;13.65;;;7.38;;
36629;SDS011;36256;42.154;23.002;2022-10-17T07:17:38;11.23;;;6.65;;
36629;SDS011;36256;42.154;23.002;2022-10-17T07:20:04;15.27;;;7.03;;
36629;SDS011;36256;42.154;23.002;2022-10-17T07:22:31;11.73;;;6.57;;
36629;SDS011;36256;42.154;23.002;2022-10-17T07:24:58;12.63;;;7.00;;
36629;SDS011;36256;42.154;23.002;2022-10-17T07:27:24;18.17;;;7.82;;
36629;SDS011;36256;42.154;23.002;2022-10-17T07:29:51;13.77;;;7.88;;
36629;SDS011;36256;42.154;23.002;2022-10-17T07:32:18;57.17;;;24.50;;
36629;SDS011;36256;42.154;23.002;2022-10-17T07:34:44;33.07;;;16.27;;
36629;SDS011;36256;42.154;23.002;2022-10-17T07:37:11;16.65;;;9.43;;
36629;SDS011;36256;42.154;23.002;2022-10-17T07:39:37;11.23;;;6.27;;
36629;SDS011;36256;42.154;23.002;2022-10-17T07:42:05;12.75;;;6.22;;
36629;SDS011;36256;42.154;23.002;2022-10-17T07:44:33;10.68;;;6.35;;
36629;SDS011;36256;42.154;23.002;2022-10-17T07:47:00;11.70;;;5.63;;
36629;SDS011;36256;42.154;23.002;2022-10-17T07:49:27;11.07;;;5.70;;
36629;SDS011;36256;42.154;23.002;2022-10-17T07:51:54;8.15;;;4.70;;
36629;SDS011;36256;42.154;23.002;2022-10-17T07:54:21;9.38;;;5.40;;
36629;SDS011;36256;42.154;23.002;2022-10-17T07:56:47;7.95;;;4.90;;
36629;SDS011;36256;42.154;23.002;2022-10-17T07:59:16;8.05;;;5.03;;
36629;SDS011;36256;42.154;23.002;2022-10-17T08:01:44;11.63;;;5.75;;
36629;SDS011;36256;42.154;23.002;2022-10-17T08:04:10;10.73;;;5.95;;
36629;SDS011;36256;42.154;23.002;2022-10-17T08:06:37;7.82;;;5.45;;
36629;SDS011;36256;42.154;23.002;2022-10-17T08:09:03;10.93;;;5.72;;
36629;SDS011;36256;42.154;23.002;2022-10-17T08:11:30;10.73;;;5.43;;
36629;SDS011;36256;42.154;23.002;2022-10-17T08:13:57;6.82;;;5.22;;
36629;SDS011;36256;42.154;23.002;2022-10-17T08:16:23;9.93;;;5.15;;
36629;SDS011;36256;42.154;23.002;2022-10-17T08:18:50;7.57;;;4.88;;
36629;SDS011;36256;42.154;23.002;2022-10-17T08:21:16;10.00;;;5.15;;
36629;SDS011;36256;42.154;23.002;2022-10-17T08:23:43;10.43;;;5.47;;
36629;SDS011;36256;42.154;23.002;2022-10-17T08:26:10;8.63;;;4.93;;
36629;SDS011;36256;42.154;23.002;2022-10-17T08:28:39;7.45;;;4.85;;
36629;SDS011;36256;42.154;23.002;2022-10-17T08:31:09;9.60;;;5.43;;
36629;SDS011;36256;42.154;23.002;2022-10-17T08:33:38;7.53;;;4.97;;
36629;SDS011;36256;42.154;23.002;2022-10-17T08:36:05;10.38;;;4.75;;
36629;SDS011;36256;42.154;23.002;2022-10-17T08:38:33;7.95;;;4.65;;
36629;SDS011;36256;42.154;23.002;2022-10-17T08:41:04;6.90;;;4.57;;
36629;SDS011;36256;42.154;23.002;2022-10-17T08:46:07;7.82;;;4.95;;
36629;SDS011;36256;42.154;23.002;2022-10-17T08:48:36;6.43;;;4.82;;
36629;SDS011;36256;42.154;23.002;2022-10-17T08:51:13;6.50;;;4.68;;
36629;SDS011;36256;42.154;23.002;2022-10-17T08:56:32;6.07;;;4.82;;
36629;SDS011;36256;42.154;23.002;2022-10-17T08:59:27;9.10;;;5.07;;
36629;SDS011;36256;42.154;23.002;2022-10-17T09:04:36;11.18;;;4.90;;
36629;SDS011;36256;42.154;23.002;2022-10-17T09:15:17;9.82;;;4.60;;
36629;SDS011;36256;42.154;23.002;2022-10-17T09:17:50;11.05;;;4.45;;
36629;SDS011;36256;42.154;23.002;2022-10-17T09:20:19;14.55;;;5.03;;
36629;SDS011;36256;42.154;23.002;2022-10-17T09:25:31;10.80;;;5.45;;
36629;SDS011;36256;42.154;23.002;2022-10-17T09:28:11;10.95;;;4.25;;
36629;SDS011;36256;42.154;23.002;2022-10-17T09:30:43;13.82;;;5.07;;
36629;SDS011;36256;42.154;23.002;2022-10-17T09:33:15;11.52;;;4.65;;
36629;SDS011;36256;42.154;23.002;2022-10-17T09:36:20;14.20;;;4.90;;
36629;SDS011;36256;42.154;23.002;2022-10-17T09:38:54;10.77;;;4.68;;
36629;SDS011;36256;42.154;23.002;2022-10-17T09:41:29;14.35;;;5.00;;
36629;SDS011;36256;42.154;23.002;2022-10-17T09:44:20;8.18;;;4.38;;
36629;SDS011;36256;42.154;23.002;2022-10-17T09:47:11;13.00;;;4.43;;
36629;SDS011;36256;42.154;23.002;2022-10-17T09:49:47;12.55;;;5.20;;
36629;SDS011;36256;42.154;23.002;2022-10-17T09:58:03;12.13;;;4.88;;
36629;SDS011;36256;42.154;23.002;2022-10-17T10:00:32;9.35;;;4.47;;
36629;SDS011;36256;42.154;23.002;2022-10-17T10:08:53;10.15;;;4.28;;
36629;SDS011;36256;42.154;23.002;2022-10-17T10:14:30;9.73;;;4.50;;
36629;SDS011;36256;42.154;23.002;2022-10-17T10:21:58;10.57;;;3.53;;
36629;SDS011;36256;42.154;23.002;2022-10-17T10:24:28;6.82;;;4.00;;
36629;SDS011;36256;42.154;23.002;2022-10-17T10:26:57;10.90;;;3.60;;
36629;SDS011;36256;42.154;23.002;2022-10-17T10:32:06;7.40;;;3.88;;
36629;SDS011;36256;42.154;23.002;2022-10-17T10:34:36;11.27;;;4.05;;
36629;SDS011;36256;42.154;23.002;2022-10-17T10:37:16;8.90;;;4.50;;
36629;SDS011;36256;42.154;23.002;2022-10-17T10:42:25;10.02;;;3.90;;
36629;SDS011;36256;42.154;23.002;2022-10-17T10:44:53;8.30;;;3.58;;
36629;SDS011;36256;42.154;23.002;2022-10-17T10:47:26;7.63;;;3.75;;
36629;SDS011;36256;42.154;23.002;2022-10-17T10:50:08;7.35;;;4.03;;
36629;SDS011;36256;42.154;23.002;2022-10-17T10:52:49;8.30;;;3.17;;
36629;SDS011;36256;42.154;23.002;2022-10-17T10:55:27;9.18;;;3.22;;
36629;SDS011;36256;42.154;23.002;2022-10-17T10:57:59;9.10;;;3.95;;
36629;SDS011;36256;42.154;23.002;2022-10-17T11:00:33;8.65;;;3.58;;
36629;SDS011;36256;42.154;23.002;2022-10-17T11:05:43;5.60;;;3.30;;
36629;SDS011;36256;42.154;23.002;2022-10-17T11:11:07;11.25;;;3.45;;
36629;SDS011;36256;42.154;23.002;2022-10-17T11:13:47;4.82;;;3.20;;
36629;SDS011;36256;42.154;23.002;2022-10-17T11:16:35;9.00;;;3.33;;
36629;SDS011;36256;42.154;23.002;2022-10-17T11:21:47;8.13;;;3.10;;
36629;SDS011;36256;42.154;23.002;2022-10-17T11:24:37;8.00;;;3.30;;
36629;SDS011;36256;42.154;23.002;2022-10-17T11:27:11;13.38;;;3.97;;
36629;SDS011;36256;42.154;23.002;2022-10-17T11:29:38;11.60;;;4.03;;
36629;SDS011;36256;42.154;23.002;2022-10-17T11:35:02;10.02;;;3.63;;
36629;SDS011;36256;42.154;23.002;2022-10-17T11:38:09;11.98;;;3.28;;
36629;SDS011;36256;42.154;23.002;2022-10-17T11:40:41;8.38;;;3.80;;
36629;SDS011;36256;42.154;23.002;2022-10-17T11:43:14;6.82;;;3.15;;
36629;SDS011;36256;42.154;23.002;2022-10-17T11:45:46;7.25;;;3.30;;
36629;SDS011;36256;42.154;23.002;2022-10-17T11:48:24;10.20;;;2.88;;
36629;SDS011;36256;42.154;23.002;2022-10-17T11:51:18;7.63;;;3.25;;
36629;SDS011;36256;42.154;23.002;2022-10-17T12:02:26;6.75;;;3.25;;
36629;SDS011;36256;42.154;23.002;2022-10-17T12:07:50;9.00;;;3.13;;
36629;SDS011;36256;42.154;23.002;2022-10-17T12:18:44;6.72;;;3.10;;
36629;SDS011;36256;42.154;23.002;2022-10-17T12:21:14;5.10;;;3.20;;
36629;SDS011;36256;42.154;23.002;2022-10-17T12:23:42;5.47;;;3.03;;
36629;SDS011;36256;42.154;23.002;2022-10-17T12:26:25;8.05;;;3.33;;
36629;SDS011;36256;42.154;23.002;2022-10-17T12:28:53;7.10;;;3.30;;
36629;SDS011;36256;42.154;23.002;2022-10-17T12:31:22;10.77;;;2.80;;
36629;SDS011;36256;42.154;23.002;2022-10-17T12:33:55;7.05;;;2.90;;
36629;SDS011;36256;42.154;23.002;2022-10-17T12:41:55;5.15;;;2.90;;
36629;SDS011;36256;42.154;23.002;2022-10-17T12:46:55;6.78;;;3.08;;
36629;SDS011;36256;42.154;23.002;2022-10-17T12:57:58;6.65;;;3.00;;
36629;SDS011;36256;42.154;23.002;2022-10-17T13:03:31;5.40;;;2.58;;
36629;SDS011;36256;42.154;23.002;2022-10-17T13:06:01;5.95;;;2.50;;
36629;SDS011;36256;42.154;23.002;2022-10-17T13:10:58;2.80;;;1.90;;
36629;SDS011;36256;42.154;23.002;2022-10-17T13:13:36;2.85;;;1.40;;
36629;SDS011;36256;42.154;23.002;2022-10-17T13:16:08;3.05;;;1.60;;
36629;SDS011;36256;42.154;23.002;2022-10-17T13:18:34;3.17;;;1.90;;
36629;SDS011;36256;42.154;23.002;2022-10-17T13:21:02;1.80;;;1.58;;
36629;SDS011;36256;42.154;23.002;2022-10-17T13:23:39;1.42;;;1.30;;
36629;SDS011;36256;42.154;23.002;2022-10-17T13:28:35;2.60;;;1.60;;
36629;SDS011;36256;42.154;23.002;2022-10-17T13:31:05;4.45;;;1.63;;
36629;SDS011;36256;42.154;23.002;2022-10-17T13:36:02;3.75;;;1.40;;
36629;SDS011;36256;42.154;23.002;2022-10-17T13:38:32;4.68;;;1.30;;
36629;SDS011;36256;42.154;23.002;2022-10-17T13:41:04;1.80;;;1.30;;
36629;SDS011;36256;42.154;23.002;2022-10-17T13:43:59;2.53;;;1.52;;
36629;SDS011;36256;42.154;23.002;2022-10-17T13:46:29;2.03;;;1.23;;
36629;SDS011;36256;42.154;23.002;2022-10-17T13:52:14;1.55;;;1.38;;
36629;SDS011;36256;42.154;23.002;2022-10-17T13:54:47;5.90;;;1.65;;
36629;SDS011;36256;42.154;23.002;2022-10-17T13:57:28;3.45;;;1.73;;
36629;SDS011;36256;42.154;23.002;2022-10-17T14:00:01;2.03;;;1.40;;
36629;SDS011;36256;42.154;23.002;2022-10-17T14:02:36;2.95;;;1.17;;
36629;SDS011;36256;42.154;23.002;2022-10-17T14:07:44;2.47;;;1.40;;
36629;SDS011;36256;42.154;23.002;2022-10-17T14:10:35;3.03;;;1.52;;
36629;SDS011;36256;42.154;23.002;2022-10-17T14:13:05;4.47;;;1.63;;
36629;SDS011;36256;42.154;23.002;2022-10-17T14:15:34;4.10;;;1.63;;
36629;SDS011;36256;42.154;23.002;2022-10-17T14:18:03;2.88;;;1.13;;
36629;SDS011;36256;42.154;23.002;2022-10-17T14:20:33;1.52;;;1.30;;
36629;SDS011;36256;42.154;23.002;2022-10-17T14:23:33;2.55;;;1.35;;
36629;SDS011;36256;42.154;23.002;2022-10-17T14:28:40;4.30;;;1.30;;
36629;SDS011;36256;42.154;23.002;2022-10-17T14:31:17;2.85;;;1.35;;
36629;SDS011;36256;42.154;23.002;2022-10-17T14:33:47;4.50;;;1.98;;
36629;SDS011;36256;42.154;23.002;2022-10-17T14:36:16;2.10;;;1.40;;
36629;SDS011;36256;42.154;23.002;2022-10-17T14:38:49;4.55;;;1.42;;
36629;SDS011;36256;42.154;23.002;2022-10-17T14:41:24;4.63;;;1.33;;
36629;SDS011;36256;42.154;23.002;2022-10-17T14:44:18;2.13;;;1.40;;
36629;SDS011;36256;42.154;23.002;2022-10-17T14:47:02;4.90;;;1.42;;
36629;SDS011;36256;42.154;23.002;2022-10-17T14:50:00;3.85;;;1.40;;
36629;SDS011;36256;42.154;23.002;2022-10-17T14:52:32;4.68;;;1.60;;
36629;SDS011;36256;42.154;23.002;2022-10-17T14:55:11;4.80;;;1.20;;
36629;SDS011;36256;42.154;23.002;2022-10-17T14:57:46;5.72;;;1.48;;
36629;SDS011;36256;42.154;23.002;2022-10-17T15:00:13;3.43;;;1.40;;
36629;SDS011;36256;42.154;23.002;2022-10-17T15:02:41;4.90;;;1.50;;
36629;SDS011;36256;42.154;23.002;2022-10-17T15:05:08;4.65;;;1.73;;
36629;SDS011;36256;42.154;23.002;2022-10-17T15:07:38;2.15;;;1.45;;
36629;SDS011;36256;42.154;23.002;2022-10-17T15:10:08;3.88;;;1.60;;
36629;SDS011;36256;42.154;23.002;2022-10-17T15:12:46;2.40;;;1.70;;
36629;SDS011;36256;42.154;23.002;2022-10-17T15:15:24;3.70;;;1.55;;
36629;SDS011;36256;42.154;23.002;2022-10-17T15:17:50;2.47;;;1.80;;
36629;SDS011;36256;42.154;23.002;2022-10-17T15:20:17;1.70;;;1.42;;
36629;SDS011;36256;42.154;23.002;2022-10-17T15:22:45;3.70;;;1.70;;
36629;SDS011;36256;42.154;23.002;2022-10-17T15:25:11;1.85;;;1.55;;
36629;SDS011;36256;42.154;23.002;2022-10-17T15:27:38;1.90;;;1.50;;
36629;SDS011;36256;42.154;23.002;2022-10-17T15:30:08;5.43;;;1.77;;
36629;SDS011;36256;42.154;23.002;2022-10-17T15:32:47;2.90;;;1.52;;
36629;SDS011;36256;42.154;23.002;2022-10-17T15:37:41;2.75;;;1.70;;
36629;SDS011;36256;42.154;23.002;2022-10-17T15:40:16;2.65;;;1.80;;
36629;SDS011;36256;42.154;23.002;2022-10-17T15:42:45;2.53;;;1.70;;
36629;SDS011;36256;42.154;23.002;2022-10-17T15:45:13;3.08;;;1.77;;
36629;SDS011;36256;42.154;23.002;2022-10-17T15:47:42;4.30;;;2.03;;
36629;SDS011;36256;42.154;23.002;2022-10-17T15:50:15;3.08;;;1.80;;
36629;SDS011;36256;42.154;23.002;2022-10-17T15:52:43;3.25;;;1.90;;
36629;SDS011;36256;42.154;23.002;2022-10-17T16:10:39;6.10;;;2.47;;
36629;SDS011;36256;42.154;23.002;2022-10-17T16:13:09;3.90;;;2.13;;
36629;SDS011;36256;42.154;23.002;2022-10-17T16:15:42;4.20;;;2.08;;
36629;SDS011;36256;42.154;23.002;2022-10-17T16:18:09;2.30;;;1.55;;
36629;SDS011;36256;42.154;23.002;2022-10-17T16:20:36;3.80;;;2.00;;
36629;SDS011;36256;42.154;23.002;2022-10-17T16:23:03;2.85;;;1.63;;
36629;SDS011;36256;42.154;23.002;2022-10-17T16:25:31;5.78;;;2.15;;
36629;SDS011;36256;42.154;23.002;2022-10-17T16:27:58;2.42;;;2.00;;
36629;SDS011;36256;42.154;23.002;2022-10-17T16:30:27;4.43;;;1.90;;
36629;SDS011;36256;42.154;23.002;2022-10-17T16:32:54;2.20;;;1.60;;
36629;SDS011;36256;42.154;23.002;2022-10-17T16:37:58;3.53;;;1.52;;
36629;SDS011;36256;42.154;23.002;2022-10-17T16:40:25;3.70;;;1.85;;
36629;SDS011;36256;42.154;23.002;2022-10-17T16:42:51;5.35;;;2.00;;
36629;SDS011;36256;42.154;23.002;2022-10-17T16:45:19;2.78;;;1.95;;
36629;SDS011;36256;42.154;23.002;2022-10-17T16:47:47;2.05;;;1.70;;
36629;SDS011;36256;42.154;23.002;2022-10-17T16:50:14;1.98;;;1.67;;
36629;SDS011;36256;42.154;23.002;2022-10-17T16:52:41;3.95;;;2.10;;
36629;SDS011;36256;42.154;23.002;2022-10-17T16:55:08;4.18;;;2.67;;
36629;SDS011;36256;42.154;23.002;2022-10-17T16:57:35;5.10;;;3.65;;
36629;SDS011;36256;42.154;23.002;2022-10-17T17:00:03;6.90;;;3.67;;
36629;SDS011;36256;42.154;23.002;2022-10-17T17:02:31;13.65;;;7.80;;
36629;SDS011;36256;42.154;23.002;2022-10-17T17:04:58;7.57;;;4.90;;
36629;SDS011;36256;42.154;23.002;2022-10-17T17:07:26;11.07;;;5.93;;
36629;SDS011;36256;42.154;23.002;2022-10-17T17:09:55;13.57;;;6.15;;
36629;SDS011;36256;42.154;23.002;2022-10-17T17:12:21;24.00;;;17.90;;
36629;SDS011;36256;42.154;23.002;2022-10-17T17:14:48;16.17;;;10.15;;
36629;SDS011;36256;42.154;23.002;2022-10-17T17:17:15;6.93;;;4.40;;
36629;SDS011;36256;42.154;23.002;2022-10-17T17:20:02;5.93;;;4.00;;
36629;SDS011;36256;42.154;23.002;2022-10-17T17:22:29;6.28;;;4.93;;
36629;SDS011;36256;42.154;23.002;2022-10-17T17:24:55;6.47;;;4.83;;
36629;SDS011;36256;42.154;23.002;2022-10-17T17:27:22;11.83;;;6.33;;
36629;SDS011;36256;42.154;23.002;2022-10-17T17:29:50;7.95;;;6.20;;
36629;SDS011;36256;42.154;23.002;2022-10-17T17:32:17;9.57;;;6.30;;